Hudson — CGDG — position and weather

sailwx.info

Track history (hours):
 
Tides and Currents Weather Stations Pressure Air Temp Water Temp Dewpoint Dewpoint Depression Visibility Wind Speed Wind Dir Waves Ship Positions

Oceanographic research ship Hudson (Canada)

Detailed information on ship capabilities available from University of Delaware's Ocean Information Center.

Last reported at 2014-Aug-30 02:33 UTC. Time now 2014-Aug-30 06:29 UTC.
Position N 44°22' W 063°29'.

Length 85.03 m; beam 15.2 m; draft 6.28 m.

Type: SAR. MMSI: 316024000.

Date/timePositionNaut miles runAvg speedWind from/ knotsBaromVisibWave heightAir tempDewpointWater temp
2014-Aug-30 02:33N 44°22' W 063°29'  
2014-Aug-27 21:15N 44°32' W 063°31'810.7
2014-Aug-27 20:33N 44°39' W 063°34'2 2.0
2014-Aug-27 19:24N 44°41' W 063°37'0 0.0
2014-Aug-27 18:33N 44°41' W 063°37'0 0.0
2014-Aug-27 17:33N 44°41' W 063°37'0 0.0
2014-Aug-27 16:33N 44°41' W 063°37'0 0.0
2014-Aug-27 15:33N 44°41' W 063°37'0 0.0
2014-Aug-27 14:33N 44°41' W 063°37'0 0.0
2014-Aug-27 13:33N 44°41' W 063°37'0 0.1
2014-Aug-27 12:33N 44°41' W 063°37'9 9.4
2014-Aug-27 11:33N 44°32' W 063°31'1111.5
2014-Aug-27 10:33N 44°27' W 063°17'1110.7
2014-Aug-27 09:32N 44°27' W 063°01'1410.7
2014-Aug-27 08:12N 44°28' W 062°42'810.4
2014-Aug-27 07:28N 44°28' W 062°31'2210.7
2014-Aug-27 05:26N 44°30' W 062°00'14 2.8
2014-Aug-27 00:20N 44°40' W 062°15'20 4.9
2014-Aug-26 20:20N 44°36' W 062°41'20 4.9
2014-Aug-26 16:18N 44°33' W 063°09'2 2.0
2014-Aug-26 15:27N 44°34' W 063°07'2 0.9
2014-Aug-26 13:20N 44°33' W 063°09'  
2014-Aug-21 20:26N 44°32' W 063°31'8 9.2
2014-Aug-21 19:33N 44°40' W 063°35'1 1.3
2014-Aug-21 18:34N 44°41' W 063°37'0 0.0
2014-Aug-21 17:31N 44°41' W 063°37'0 0.0
2014-Aug-21 16:34N 44°41' W 063°37'0 0.0
2014-Aug-21 15:22N 44°41' W 063°37'0 0.0
2014-Aug-21 14:34N 44°41' W 063°37'0 0.0
2014-Aug-21 13:25N 44°41' W 063°37'0 0.0
2014-Aug-21 12:25N 44°41' W 063°37'0 0.0
2014-Aug-21 11:28N 44°41' W 063°37'0 0.0
2014-Aug-21 10:28N 44°41' W 063°37'0 0.0
2014-Aug-21 09:28N 44°41' W 063°37'0 0.0
2014-Aug-21 08:33N 44°41' W 063°37'0 0.0
2014-Aug-21 07:28N 44°41' W 063°37'0 0.0
2014-Aug-21 06:28N 44°41' W 063°37'0 0.0
2014-Aug-21 05:28N 44°41' W 063°37'0 0.0
2014-Aug-21 04:31N 44°41' W 063°37'0 0.0
2014-Aug-21 03:28N 44°41' W 063°37'0 0.0
2014-Aug-21 02:31N 44°41' W 063°37'0 0.0
2014-Aug-21 01:31N 44°41' W 063°37'0 0.0
2014-Aug-21 00:16N 44°41' W 063°37'0 0.0
2014-Aug-20 23:31N 44°41' W 063°37'0 0.0
2014-Aug-20 22:31N 44°41' W 063°37'0 0.0
2014-Aug-20 21:22N 44°41' W 063°37'0 0.0
2014-Aug-20 20:22N 44°41' W 063°37'0 0.0
2014-Aug-20 19:22N 44°41' W 063°37'0 0.0
2014-Aug-20 18:22N 44°41' W 063°37'0 0.0
2014-Aug-20 17:28N 44°41' W 063°37'0 0.0
2014-Aug-20 16:28N 44°41' W 063°37'0 0.0
2014-Aug-20 15:16N 44°41' W 063°37'0 0.0
2014-Aug-20 14:31N 44°41' W 063°37'0 0.0
2014-Aug-20 13:31N 44°41' W 063°37'0 0.0
2014-Aug-20 12:31N 44°41' W 063°37'0 0.0
2014-Aug-20 11:28N 44°41' W 063°37'0 0.0
2014-Aug-20 10:22N 44°41' W 063°37'0 0.0
2014-Aug-20 09:28N 44°41' W 063°37'0 0.0
2014-Aug-20 08:31N 44°41' W 063°37'0 0.0
2014-Aug-20 07:16N 44°41' W 063°37'0 0.0
2014-Aug-20 06:28N 44°41' W 063°37'0 0.0
2014-Aug-20 05:28N 44°41' W 063°37'0 0.0
2014-Aug-20 04:19N 44°41' W 063°37'0 0.0
2014-Aug-20 03:22N 44°41' W 063°37'  
Track history (hours):
 
Tides and Currents Weather Stations Pressure Air Temp Water Temp Dewpoint Dewpoint Depression Visibility Wind Speed Wind Dir Waves Ship Positions

Oceanographic research ship Hudson (Canada)

Detailed information on ship capabilities available from University of Delaware's Ocean Information Center.

Last reported at 2014-Aug-30 02:33 UTC. Time now 2014-Aug-30 06:29 UTC.
Position N 44°22' W 063°29'.

Length 85.03 m; beam 15.2 m; draft 6.28 m.

Type: SAR. MMSI: 316024000.

Date/timePositionNaut miles runAvg speedWind from/ knotsBaromVisibWave heightAir tempDewpointWater temp
2014-Aug-30 02:33N 44°22' W 063°29'  
2014-Aug-27 21:15N 44°32' W 063°31'810.7
2014-Aug-27 20:33N 44°39' W 063°34'2 2.0
2014-Aug-27 19:24N 44°41' W 063°37'0 0.0
2014-Aug-27 18:33N 44°41' W 063°37'0 0.0
2014-Aug-27 17:33N 44°41' W 063°37'0 0.0
2014-Aug-27 16:33N 44°41' W 063°37'0 0.0
2014-Aug-27 15:33N 44°41' W 063°37'0 0.0
2014-Aug-27 14:33N 44°41' W 063°37'0 0.0
2014-Aug-27 13:33N 44°41' W 063°37'0 0.1
2014-Aug-27 12:33N 44°41' W 063°37'9 9.4
2014-Aug-27 11:33N 44°32' W 063°31'1111.5
2014-Aug-27 10:33N 44°27' W 063°17'1110.7
2014-Aug-27 09:32N 44°27' W 063°01'1410.7
2014-Aug-27 08:12N 44°28' W 062°42'810.4
2014-Aug-27 07:28N 44°28' W 062°31'2210.7
2014-Aug-27 05:26N 44°30' W 062°00'14 2.8
2014-Aug-27 00:20N 44°40' W 062°15'20 4.9
2014-Aug-26 20:20N 44°36' W 062°41'20 4.9
2014-Aug-26 16:18N 44°33' W 063°09'2 2.0
2014-Aug-26 15:27N 44°34' W 063°07'2 0.9
2014-Aug-26 13:20N 44°33' W 063°09'  
2014-Aug-21 20:26N 44°32' W 063°31'8 9.2
2014-Aug-21 19:33N 44°40' W 063°35'1 1.3
2014-Aug-21 18:34N 44°41' W 063°37'0 0.0
2014-Aug-21 17:31N 44°41' W 063°37'0 0.0
2014-Aug-21 16:34N 44°41' W 063°37'0 0.0
2014-Aug-21 15:22N 44°41' W 063°37'0 0.0
2014-Aug-21 14:34N 44°41' W 063°37'0 0.0
2014-Aug-21 13:25N 44°41' W 063°37'0 0.0
2014-Aug-21 12:25N 44°41' W 063°37'0 0.0
2014-Aug-21 11:28N 44°41' W 063°37'0 0.0
2014-Aug-21 10:28N 44°41' W 063°37'0 0.0
2014-Aug-21 09:28N 44°41' W 063°37'0 0.0
2014-Aug-21 08:33N 44°41' W 063°37'0 0.0
2014-Aug-21 07:28N 44°41' W 063°37'0 0.0
2014-Aug-21 06:28N 44°41' W 063°37'0 0.0
2014-Aug-21 05:28N 44°41' W 063°37'0 0.0
2014-Aug-21 04:31N 44°41' W 063°37'0 0.0
2014-Aug-21 03:28N 44°41' W 063°37'0 0.0
2014-Aug-21 02:31N 44°41' W 063°37'0 0.0
2014-Aug-21 01:31N 44°41' W 063°37'0 0.0
2014-Aug-21 00:16N 44°41' W 063°37'0 0.0
2014-Aug-20 23:31N 44°41' W 063°37'0 0.0
2014-Aug-20 22:31N 44°41' W 063°37'0 0.0
2014-Aug-20 21:22N 44°41' W 063°37'0 0.0
2014-Aug-20 20:22N 44°41' W 063°37'0 0.0
2014-Aug-20 19:22N 44°41' W 063°37'0 0.0
2014-Aug-20 18:22N 44°41' W 063°37'0 0.0
2014-Aug-20 17:28N 44°41' W 063°37'0 0.0
2014-Aug-20 16:28N 44°41' W 063°37'0 0.0
2014-Aug-20 15:16N 44°41' W 063°37'0 0.0
2014-Aug-20 14:31N 44°41' W 063°37'0 0.0
2014-Aug-20 13:31N 44°41' W 063°37'0 0.0
2014-Aug-20 12:31N 44°41' W 063°37'0 0.0
2014-Aug-20 11:28N 44°41' W 063°37'0 0.0
2014-Aug-20 10:22N 44°41' W 063°37'0 0.0
2014-Aug-20 09:28N 44°41' W 063°37'0 0.0
2014-Aug-20 08:31N 44°41' W 063°37'0 0.0
2014-Aug-20 07:16N 44°41' W 063°37'0 0.0
2014-Aug-20 06:28N 44°41' W 063°37'0 0.0
2014-Aug-20 05:28N 44°41' W 063°37'0 0.0
2014-Aug-20 04:19N 44°41' W 063°37'0 0.0
2014-Aug-20 03:22N 44°41' W 063°37'  

Dump ship's entire track history